Terminal Aerodrome Forecast
Issued by NWS

Home | Current Version | Previous Version | Text Only | Print | Product List | Glossary On
Versions: 1 2 3 4 5 6 7 8 9 10 11 12 13 14 15 16 17 18 19 20 21 22 23 24 25 26 27 28
667
FTPA31 PHFO 131120
TAFMDY
TAF
PMDY 131120Z 1312/1412 09013KT P6SM FEW030 BKN040
     FM131800 17010KT P6SM FEW020 SCT040
     FM140500 20007KT P6SM SCT025 SCT040=

USA.gov is the U.S. government's official web portal to all federal, state and local government web resources and services.